الصفحة الرئيسية
METAR-TAF:

METAR-TAF

مطار :

Phitsanulok, تايلاند

دائرة عرض: 16-46-23N, خط طول: 100-16-56E, ارتفاع: 47 متر

مراقبة الطقس الحالي

تاريخ ووقت الإصدار 9ساعات و 49 دقيقة قبل الساعة 13:00UTC
ريح 6 عقدة من الجنوب/الجنوب الشرقي
درجة الحرارة 26°درجة مئوية
الرطوبة 94%
ضغط 1004 hPa
الرؤية: 5000 متر
غيوم قليلة على ارتفاع 1000 قدم
غيوم قليلة على ارتفاع 2000 قدم, مزن ركامية عمودية.
غيوم متفرقة على ارتفاع 2500 قدم
غيوم مفككة على ارتفاع 7500 قدم
مطر خفيف

METAR: VTPP 251300Z 16006KT 5000 -RA FEW010 FEW020TCU SCT025 BKN075 26/25 Q1004 RERA NOSIG

زمن: 05:49 (22:49 UTC)

توقعات

تاريخ ووقت الإصدار 5ساعات و 49 دقيقة قبل الساعة 17:00UTC
التوقعات صالحة من25 الساعة 18 UTC إلى 26 الساعة 18 UTC
ريح 5 عقدة من الجنوب/الجنوب الشرقي
الرؤية 10 كم أو أكثر
غيوم متفرقة على ارتفاع 2500 قدم
مؤقت
من 26 الساعة 06 UTC إلى 26 الساعة 12 UTC
ريح 15 عقدة من الجنوب/الجنوب الغربي تتزايد حتى 25 عقدة
الرؤية: 4000 متر
غيوم قليلة على ارتفاع 2000 قدم, مزنة ركامية.
غيوم مفككة على ارتفاع 2500 قدم
عاصفة رعدية, مطر

TAF: VTPP 251700Z 2518/2618 16005KT 9999 SCT025 TEMPO 2606/2612 20015G25KT 4000 TSRA FEW020CB BKN025

أرصاد الطقس والتوقعات من أكثر من 4000 مطار (تقارير الطقس للمطار METAR والتنبؤ بالطقس بالمطارTAF).

المحطات المتاحة هي النقط الصفراء والحمراء على الخريطة.

حرك المؤشر فوق النقطة لمعرفة اسم المحطة.

ثم انقر لمعرفة أرصاد وتوقعات الطقس.

لتغيير الخارطة: اضغط على الأزرار الخضراء مع رمز الصليب الأسود للتكبير. على الزر الأخضر مع شرطة للتصغير، أو على الأسهم الخضراء للخرائط المجاورة.


METAR-TAF: